Latest Weather Observations for Fitzroy Crossing

IDW60801

Issued at 2:32 pm WST Tuesday 28 April 2015 (issued every 30 minutes, with the page automatically refreshed every 10 minutes)

About weather observations | Map of weather stations | Latest weather observations for WA | Other Formats
Station Details ID: 003093 Name: FITZROY CROSSING AERO Lat: -18.18 Lon: 125.56 Height: 114.5 m
Data from the previous 72 hours. | See also: Recent months at Fitzroy Crossing
Date/Time
WST
Temp
°C
App
Temp
°C
Dew
Point
Rel
Hum
%
Delta-T
°C
Wind Press
QNH
hPa
Press
MSL
hPa
Rain
since 9 am
mm
Dir
 
Spd
km/h
Gust
km/h
Spd
kts
Gust
kts
28/02:30pm 33.0 28.1 2.0 14 15.7 ESE 17 24 9 13 1012.6 1011.9 0.0
28/02:00pm 32.7 28.3 2.7 15 15.3 E 15 24 8 13 1012.7 1012.0 0.0
28/01:30pm 32.6 27.2 2.6 15 15.3 E 20 28 11 15 1012.8 1012.1 0.0
28/01:00pm 32.4 27.4 3.4 16 15.0 NE 19 30 10 16 1013.3 1012.6 0.0
28/12:30pm 32.1 27.0 4.0 17 14.6 ENE 20 30 11 16 1013.7 1013.0 0.0
28/12:00pm 31.5 26.4 4.3 18 14.2 ENE 20 32 11 17 1014.3 1013.5 0.0
28/11:30am 31.0 25.6 4.7 19 13.8 ENE 22 33 12 18 1014.8 1014.0 0.0
28/11:00am 30.1 24.7 4.7 20 13.2 E 22 35 12 19 1015.3 1014.5 0.0
28/10:30am 30.3 24.9 6.2 22 12.9 E 24 33 13 18 1015.7 1014.9 0.0
28/10:00am 28.9 22.6 5.7 23 12.2 E 28 37 15 20 1016.3 1015.5 0.0
28/09:30am 28.3 22.9 6.4 25 11.6 E 24 35 13 19 1016.8 1016.0 0.0
28/09:00am 27.0 20.9 6.4 27 10.8 ENE 28 37 15 20 1017.1 1016.4 0.0
28/08:30am 26.2 20.4 6.3 28 10.4 E 26 35 14 19 1017.2 1016.5 0.0
28/08:00am 24.9 20.2 6.1 30 9.7 E 20 32 11 17 1017.1 1016.4 0.0
28/07:30am 23.5 18.0 5.9 32 9.0 E 24 37 13 20 1017.0 1016.2 0.0
28/07:00am 22.3 17.1 5.3 33 8.5 E 22 32 12 17 1016.8 1016.0 0.0
28/06:30am 20.2 17.1 3.4 33 8.0 E 9 13 5 7 1016.9 1016.1 0.0
28/06:00am 19.5 15.4 2.4 32 7.9 E 13 17 7 9 1016.8 1016.0 0.0
28/05:30am 20.1 15.7 2.9 32 8.1 ESE 15 20 8 11 1016.3 1015.5 0.0
28/05:00am 20.4 15.7 3.2 32 8.2 ESE 17 24 9 13 1015.7 1014.9 0.0
28/04:30am 20.3 15.2 3.1 32 8.1 ESE 19 24 10 13 1015.6 1014.8 0.0
28/04:00am 19.9 15.4 2.3 31 8.2 ESE 15 20 8 11 1015.8 1015.0 0.0
28/03:30am 20.3 15.8 2.2 30 8.4 ESE 15 20 8 11 1015.8 1015.0 0.0
28/03:00am 21.1 16.4 2.9 30 8.6 ESE 17 24 9 13 1015.7 1014.9 0.0
28/02:30am 20.8 16.0 2.6 30 8.6 ESE 17 20 9 11 1015.7 1014.9 0.0
28/02:00am 20.7 16.2 2.0 29 8.7 ESE 15 20 8 11 1016.0 1015.2 0.0
28/01:30am 20.8 15.8 1.6 28 8.9 ESE 17 20 9 11 1016.1 1015.3 0.0
28/01:00am 20.7 16.0 1.1 27 8.9 ESE 15 17 8 9 1016.2 1015.4 0.0
28/12:30am 20.8 16.4 0.6 26 9.1 ESE 13 17 7 9 1016.4 1015.6 0.0
28/12:00am 21.4 16.7 0.6 25 9.4 ESE 15 17 8 9 1016.4 1015.6 0.0
 
Date/Time
WST
Temp
°C
App
Temp
°C
Dew
Point
Rel
Hum
%
Delta-T
°C
Wind Press
QNH
hPa
Press
MSL
hPa
Rain
since 9 am
mm
Dir
 
Spd
km/h
Gust
km/h
Spd
kts
Gust
kts
27/11:30pm 22.2 17.5 0.7 24 9.9 ESE 15 19 8 10 1016.5 1015.7 0.0
27/11:00pm 22.6 17.9 1.0 24 10.0 ESE 15 20 8 11 1016.6 1015.8 0.0
27/10:30pm 23.5 18.6 1.8 24 10.3 ESE 17 24 9 13 1016.8 1016.0 0.0
27/10:00pm 23.3 18.3 1.6 24 10.2 ESE 17 20 9 11 1016.7 1015.9 0.0
27/09:30pm 21.5 17.0 -0.5 23 9.8 SE 13 15 7 8 1016.8 1016.0 0.0
27/09:00pm 20.5 16.2 -1.9 22 9.6 ESE 11 13 6 7 1016.9 1016.1 0.0
27/08:30pm 21.4 17.5 -1.8 21 10.1 SE 9 11 5 6 1016.9 1016.1 0.0
27/08:00pm 22.0 17.6 -2.7 19 10.6 SE 11 13 6 7 1016.6 1015.8 0.0
27/07:30pm 22.7 18.6 -2.8 18 11.0 E 9 11 5 6 1016.1 1015.3 0.0
27/07:00pm 24.2 20.1 -3.2 16 11.8 E 9 11 5 6 1015.8 1015.0 0.0
27/06:30pm 24.8 20.6 -3.6 15 12.3 ESE 9 11 5 6 1015.4 1014.6 0.0
27/06:00pm 25.6 21.0 -3.8 14 12.7 ESE 11 13 6 7 1015.2 1014.4 0.0
27/05:30pm 27.7 22.7 -4.3 12 14.0 ESE 13 17 7 9 1014.8 1014.0 0.0
27/05:00pm 29.8 23.9 -2.6 12 14.8 SE 19 26 10 14 1014.5 1013.7 0.0
27/04:30pm 31.2 25.6 -2.7 11 15.7 ESE 17 26 9 14 1014.2 1013.4 0.0
27/04:00pm 31.8 26.3 -2.3 11 15.9 ESE 17 28 9 15 1013.9 1013.1 0.0
27/03:30pm 32.2 26.7 -2.0 11 16.1 ESE 17 24 9 13 1013.7 1013.0 0.0
27/03:00pm 32.5 26.7 -1.7 11 16.2 E 19 28 10 15 1013.6 1012.9 0.0
27/02:30pm 32.4 26.9 -1.8 11 16.2 ESE 17 26 9 14 1013.6 1012.9 0.0
27/02:00pm 32.7 27.0 -0.4 12 16.1 E 19 28 10 15 1013.5 1012.8 0.0
27/01:30pm 33.0 27.8 -0.2 12 16.2 ENE 17 24 9 13 1013.9 1013.1 0.0
27/01:00pm 32.2 27.0 0.3 13 15.6 ENE 17 32 9 17 1014.3 1013.5 0.0
27/12:30pm 32.3 27.3 1.4 14 15.4 NE 17 24 9 13 1014.9 1014.1 0.0
27/12:00pm 31.5 26.6 1.8 15 14.8 E 17 33 9 18 1015.4 1014.6 0.0
27/11:30am 30.8 25.0 2.1 16 14.4 ENE 22 35 12 19 1015.9 1015.1 0.0
27/11:00am 30.5 24.8 2.7 17 14.0 ENE 22 32 12 17 1016.3 1015.5 0.0
27/10:30am 29.7 24.1 3.6 19 13.3 E 22 35 12 19 1016.8 1016.0 0.0
27/10:00am 29.3 23.9 4.7 21 12.7 ENE 22 35 12 19 1017.0 1016.2 0.0
27/09:30am 28.3 22.7 5.2 23 12.0 ENE 24 33 13 18 1017.4 1016.7 0.0
27/09:00am 27.8 22.8 6.6 26 11.2 ENE 22 39 12 21 1017.6 1016.9 0.0
27/08:30am 26.5 22.6 7.0 29 10.3 E 17 28 9 15 1017.4 1016.7 0.0
27/08:00am 24.5 21.3 6.7 32 9.3 E 13 19 7 10 1017.3 1016.6 0.0
27/07:30am 23.1 20.4 7.2 36 8.3 NE 11 17 6 9 1017.3 1016.6 0.0
27/07:00am 20.7 18.7 6.3 39 7.3 NE 6 11 3 6 1017.1 1016.4 0.0
27/06:30am 18.4 17.1 4.2 39 6.8 CALM 0 0 0 0 1016.8 1016.0 0.0
27/06:00am 16.5 13.5 2.2 38 6.4 SSE 7 7 4 4 1016.6 1015.8 0.0
27/05:30am 16.7 15.1 2.3 38 6.5 CALM 0 0 0 0 1016.3 1015.5 0.0
27/05:00am 16.8 14.0 2.0 37 6.7 ESE 6 7 3 4 1015.9 1015.1 0.0
27/04:30am 16.6 14.9 1.9 37 6.6 CALM 0 0 0 0 1015.5 1014.7 0.0
27/04:00am 16.7 15.0 1.6 36 6.7 CALM 0 0 0 0 1015.3 1014.5 0.0
27/03:30am 16.3 14.4 0.4 34 6.9 CALM 0 0 0 0 1015.3 1014.5 0.0
27/03:00am 17.0 15.0 0.2 32 7.3 CALM 0 0 0 0 1015.1 1014.3 0.0
27/02:30am 17.5 15.5 -0.2 30 7.7 CALM 0 0 0 0 1015.2 1014.4 0.0
27/02:00am 20.8 17.8 1.1 27 9.0 E 6 9 3 5 1015.2 1014.4 0.0
27/01:30am 21.7 17.5 1.9 27 9.3 ESE 13 15 7 8 1015.3 1014.5 0.0
27/01:00am 21.6 17.4 1.8 27 9.2 ESE 13 15 7 8 1015.5 1014.7 0.0
27/12:30am 20.6 17.1 1.0 27 8.9 SE 9 13 5 7 1015.7 1014.9 0.0
27/12:00am 20.9 17.2 0.2 25 9.3 SE 9 11 5 6 1015.9 1015.1 0.0
 
Date/Time
WST
Temp
°C
App
Temp
°C
Dew
Point
Rel
Hum
%
Delta-T
°C
Wind Press
QNH
hPa
Press
MSL
hPa
Rain
since 9 am
mm
Dir
 
Spd
km/h
Gust
km/h
Spd
kts
Gust
kts
26/11:30pm 21.8 18.2 0.4 24 9.7 ESE 9 13 5 7 1015.9 1015.1 0.0
26/11:00pm 22.9 18.6 1.3 24 10.1 ESE 13 17 7 9 1015.9 1015.1 0.0
26/10:30pm 23.6 19.3 1.3 23 10.5 ESE 13 17 7 9 1016.0 1015.2 0.0
26/10:00pm 23.9 19.7 1.5 23 10.6 ESE 13 19 7 10 1016.0 1015.2 0.0
26/09:30pm 24.4 19.8 1.3 22 10.9 ESE 15 17 8 9 1016.1 1015.3 0.0
26/09:00pm 24.9 20.3 1.7 22 11.1 ESE 15 19 8 10 1016.0 1015.2 0.0
26/08:30pm 25.1 20.8 1.3 21 11.3 ESE 13 15 7 8 1015.9 1015.1 0.0
26/08:00pm 26.1 21.9 1.4 20 11.8 ESE 13 17 7 9 1015.7 1014.9 0.0
26/07:30pm 26.8 22.3 2.0 20 12.1 ESE 15 19 8 10 1015.4 1014.6 0.0
26/07:00pm 27.1 23.0 2.2 20 12.2 ESE 13 17 7 9 1015.1 1014.3 0.0
26/06:30pm 27.3 23.6 2.4 20 12.2 ESE 11 13 6 7 1014.7 1013.9 0.0
26/06:00pm 28.1 24.4 2.3 19 12.7 ESE 11 13 6 7 1014.4 1013.6 0.0
26/05:30pm 29.5 26.1 1.9 17 13.6 SE 9 13 5 7 1014.1 1013.3 0.0
26/05:00pm 31.7 27.5 3.7 17 14.5 SE 15 19 8 10 1013.5 1012.8 0.0
26/04:30pm 32.0 27.3 3.1 16 14.8 SE 17 20 9 11 1013.1 1012.4 0.0
26/04:00pm 32.8 28.2 3.7 16 15.1 SSE 17 20 9 11 1012.8 1012.1 0.0
26/03:30pm 33.8 28.8 4.5 16 15.5 SE 20 26 11 14 1012.6 1011.9 0.0
26/03:00pm 33.8 29.7 4.5 16 15.5 SE 15 24 8 13 1012.6 1011.9 0.0
26/02:30pm 34.4 29.7 5.0 16 15.8 E 19 30 10 16 1012.5 1011.8 0.0
26/02:00pm 34.2 30.2 4.8 16 15.7 ESE 15 28 8 15 1012.6 1011.9 0.0
26/01:30pm 34.0 29.8 5.5 17 15.4 SE 17 26 9 14 1012.8 1012.1 0.0
26/01:00pm 33.8 29.5 5.4 17 15.3 ESE 17 24 9 13 1013.2 1012.5 0.0
26/12:30pm 34.2 30.2 6.5 18 15.2 E 17 28 9 15 1013.5 1012.8 0.0
26/12:00pm 33.0 28.2 5.5 18 14.7 E 20 28 11 15 1013.9 1013.1 0.0
26/11:30am 32.6 28.1 6.0 19 14.3 E 19 30 10 16 1014.4 1013.6 0.0
26/11:00am 32.5 27.7 7.4 21 13.8 ENE 22 35 12 19 1014.9 1014.1 0.0
26/10:30am 32.1 27.4 7.7 22 13.5 ENE 22 33 12 18 1015.4 1014.6 0.0
26/10:00am 30.5 26.2 7.7 24 12.5 ENE 20 32 11 17 1015.9 1015.1 0.0
26/09:30am 31.3 27.6 10.1 27 12.1 E 20 32 11 17 1016.2 1015.4 0.0
26/09:00am 28.7 25.4 9.4 30 10.8 NE 17 26 9 14 1016.4 1015.6 0.0
26/08:30am 27.2 24.9 9.1 32 10.0 E 11 17 6 9 1016.2 1015.4 0.0
26/08:00am 25.0 23.0 8.5 35 8.9 ESE 9 13 5 7 1016.0 1015.2 0.0
26/07:30am 22.7 20.3 6.9 36 8.2 SE 9 11 5 6 1015.8 1015.0 0.0
26/07:00am 21.9 19.3 6.2 36 8.0 SE 9 11 5 6 1015.5 1014.7 0.0
26/06:30am 20.0 17.5 4.9 37 7.4 SSE 7 11 4 6 1015.3 1014.5 0.0
26/06:00am 19.1 15.7 4.1 37 7.2 SSE 11 13 6 7 1014.7 1013.9 0.0
26/05:30am 19.1 16.0 3.7 36 7.3 SSE 9 11 5 6 1014.7 1013.9 0.0
26/05:00am 19.3 16.2 3.5 35 7.5 SSE 9 11 5 6 1014.5 1013.7 0.0
26/04:30am 19.6 16.8 3.3 34 7.7 SSE 7 9 4 5 1014.3 1013.5 0.0
26/04:00am 20.0 17.3 3.7 34 7.8 SSE 7 9 4 5 1014.3 1013.5 0.0
26/03:30am 20.5 17.4 3.7 33 8.1 S 9 11 5 6 1014.2 1013.4 0.0
26/03:00am 21.0 17.4 3.2 31 8.5 S 11 11 6 6 1014.0 1013.2 0.0
26/02:30am 21.7 18.2 3.4 30 8.8 S 11 13 6 7 1014.0 1013.2 0.0
26/02:00am 23.1 20.4 3.6 28 9.5 SSE 7 9 4 5 1014.0 1013.2 0.0
26/01:30am 25.0 21.8 5.2 28 10.1 SE 11 15 6 8 1013.9 1013.1 0.0
26/01:00am 25.2 21.8 5.9 29 10.0 SE 13 15 7 8 1013.9 1013.1 0.0
26/12:30am 25.2 21.9 6.4 30 9.8 SE 13 17 7 9 1014.0 1013.2 0.0
26/12:00am 23.6 21.1 5.0 30 9.3 SSE 7 9 4 5 1014.1 1013.3 0.0
 
Date/Time
WST
Temp
°C
App
Temp
°C
Dew
Point
Rel
Hum
%
Delta-T
°C
Wind Press
QNH
hPa
Press
MSL
hPa
Rain
since 9 am
mm
Dir
 
Spd
km/h
Gust
km/h
Spd
kts
Gust
kts
25/11:30pm 24.3 21.5 5.1 29 9.7 SSE 9 11 5 6 1014.2 1013.4 0.0
25/11:00pm 25.2 22.1 5.4 28 10.1 SSE 11 13 6 7 1014.3 1013.5 0.0
25/10:30pm 25.5 22.3 5.1 27 10.4 SSE 11 15 6 8 1014.3 1013.5 0.0
25/10:00pm 26.1 22.9 5.1 26 10.7 SSE 11 13 6 7 1014.4 1013.6 0.0
25/09:30pm 27.4 23.9 5.6 25 11.3 SSE 13 17 7 9 1014.3 1013.5 0.0
25/09:00pm 28.0 24.7 6.2 25 11.5 SSE 13 17 7 9 1014.3 1013.5 0.0
25/08:30pm 28.8 25.6 6.8 25 11.8 SE 13 19 7 10 1014.2 1013.4 0.0
25/08:00pm 28.8 25.5 6.2 24 12.0 SSE 13 15 7 8 1014.0 1013.2 0.0
25/07:30pm 29.5 26.3 6.8 24 12.2 SSE 13 17 7 9 1013.6 1012.9 0.0
25/07:00pm 30.2 27.1 7.4 24 12.4 SSE 13 17 7 9 1013.0 1012.3 0.0
25/06:30pm 30.9 28.0 8.0 24 12.6 SSE 13 17 7 9 1012.5 1011.8 0.0
25/06:00pm 30.0 27.5 6.6 23 12.6 SSE 9 11 5 6 1012.1 1011.4 0.0
25/05:30pm 31.1 28.9 6.2 21 13.4 ESE 7 9 4 5 1011.7 1011.0 0.0
25/05:00pm 32.6 30.1 6.7 20 14.1 ESE 9 13 5 7 1011.4 1010.7 0.0
25/04:30pm 33.6 30.4 6.8 19 14.7 ESE 13 17 7 9 1011.1 1010.4 0.0
25/04:00pm 34.0 30.9 7.1 19 14.9 SE 13 24 7 13 1010.8 1010.1 0.0
25/03:30pm 34.4 31.2 6.7 18 15.2 E 13 17 7 9 1010.5 1009.8 0.0
25/03:00pm 35.0 31.5 7.1 18 15.5 ESE 15 22 8 12 1010.4 1009.7 0.0

Other Formats:

Comma delimited format used in spreadsheet applications
http://www.bom.gov.au/fwo/IDW60801/IDW60801.94206.axf

JavaScript Object Notation format (JSON) in row-major order
http://www.bom.gov.au/fwo/IDW60801/IDW60801.94206.json